sensor_id;sensor_type;location;lat;lon;timestamp;temperature;humidity
5011;DHT22;2524;54.364;10.072;2023-07-29T00:01:08;19.30;99.90
5011;DHT22;2524;54.364;10.072;2023-07-29T00:03:34;19.30;99.90
5011;DHT22;2524;54.364;10.072;2023-07-29T00:05:59;19.30;99.90
5011;DHT22;2524;54.364;10.072;2023-07-29T00:08:25;19.20;99.90
5011;DHT22;2524;54.364;10.072;2023-07-29T00:10:50;19.20;99.90
5011;DHT22;2524;54.364;10.072;2023-07-29T00:13:16;19.20;99.90
5011;DHT22;2524;54.364;10.072;2023-07-29T00:15:41;19.10;99.90
5011;DHT22;2524;54.364;10.072;2023-07-29T00:18:07;19.10;99.90
5011;DHT22;2524;54.364;10.072;2023-07-29T00:20:32;19.10;99.90
5011;DHT22;2524;54.364;10.072;2023-07-29T00:22:58;19.20;99.90
5011;DHT22;2524;54.364;10.072;2023-07-29T00:25:24;19.10;99.90
5011;DHT22;2524;54.364;10.072;2023-07-29T00:27:50;19.10;99.90
5011;DHT22;2524;54.364;10.072;2023-07-29T00:30:15;19.10;99.90
5011;DHT22;2524;54.364;10.072;2023-07-29T00:32:41;19.10;99.90
5011;DHT22;2524;54.364;10.072;2023-07-29T00:35:07;19.00;99.90
5011;DHT22;2524;54.364;10.072;2023-07-29T00:37:32;19.00;99.90
5011;DHT22;2524;54.364;10.072;2023-07-29T00:39:58;19.00;99.90
5011;DHT22;2524;54.364;10.072;2023-07-29T00:42:24;19.00;99.90
5011;DHT22;2524;54.364;10.072;2023-07-29T00:44:49;19.00;99.90
5011;DHT22;2524;54.364;10.072;2023-07-29T00:47:15;19.00;99.90
5011;DHT22;2524;54.364;10.072;2023-07-29T00:49:45;19.00;99.90
5011;DHT22;2524;54.364;10.072;2023-07-29T00:52:11;19.00;99.90
5011;DHT22;2524;54.364;10.072;2023-07-29T00:54:39;19.10;99.90
5011;DHT22;2524;54.364;10.072;2023-07-29T00:57:05;19.10;99.90
5011;DHT22;2524;54.364;10.072;2023-07-29T00:59:32;19.20;99.90
5011;DHT22;2524;54.364;10.072;2023-07-29T01:01:59;19.10;99.90
5011;DHT22;2524;54.364;10.072;2023-07-29T01:04:28;19.10;99.90
5011;DHT22;2524;54.364;10.072;2023-07-29T01:07:21;19.10;99.90
5011;DHT22;2524;54.364;10.072;2023-07-29T01:10:19;19.00;99.90
5011;DHT22;2524;54.364;10.072;2023-07-29T01:15:55;19.10;99.90
5011;DHT22;2524;54.364;10.072;2023-07-29T01:18:23;19.00;99.90
5011;DHT22;2524;54.364;10.072;2023-07-29T01:20:53;19.10;99.90
5011;DHT22;2524;54.364;10.072;2023-07-29T01:23:28;18.90;99.90
5011;DHT22;2524;54.364;10.072;2023-07-29T01:25:54;19.00;99.90
5011;DHT22;2524;54.364;10.072;2023-07-29T01:28:20;18.90;99.90
5011;DHT22;2524;54.364;10.072;2023-07-29T01:30:49;19.00;99.90
5011;DHT22;2524;54.364;10.072;2023-07-29T01:33:21;18.80;99.90
5011;DHT22;2524;54.364;10.072;2023-07-29T01:36:13;18.80;99.90
5011;DHT22;2524;54.364;10.072;2023-07-29T01:38:41;18.70;99.90
5011;DHT22;2524;54.364;10.072;2023-07-29T01:41:08;18.70;99.90
5011;DHT22;2524;54.364;10.072;2023-07-29T01:43:34;18.60;99.90
5011;DHT22;2524;54.364;10.072;2023-07-29T01:46:04;18.70;99.90
5011;DHT22;2524;54.364;10.072;2023-07-29T01:48:30;18.70;99.90
5011;DHT22;2524;54.364;10.072;2023-07-29T01:50:57;18.50;99.90
5011;DHT22;2524;54.364;10.072;2023-07-29T01:53:23;18.50;99.90
5011;DHT22;2524;54.364;10.072;2023-07-29T01:55:49;18.60;99.90
5011;DHT22;2524;54.364;10.072;2023-07-29T01:58:14;18.50;99.90
5011;DHT22;2524;54.364;10.072;2023-07-29T02:00:40;18.50;99.90
5011;DHT22;2524;54.364;10.072;2023-07-29T02:03:05;18.50;99.90
5011;DHT22;2524;54.364;10.072;2023-07-29T02:05:31;18.50;99.90
5011;DHT22;2524;54.364;10.072;2023-07-29T02:07:56;18.40;99.90
5011;DHT22;2524;54.364;10.072;2023-07-29T02:10:22;18.50;99.90
5011;DHT22;2524;54.364;10.072;2023-07-29T02:12:48;18.40;99.90
5011;DHT22;2524;54.364;10.072;2023-07-29T02:15:13;18.40;99.90
5011;DHT22;2524;54.364;10.072;2023-07-29T02:17:41;18.40;99.90
5011;DHT22;2524;54.364;10.072;2023-07-29T02:20:07;18.50;99.90
5011;DHT22;2524;54.364;10.072;2023-07-29T02:22:34;18.40;99.90
5011;DHT22;2524;54.364;10.072;2023-07-29T02:24:59;18.40;99.90
5011;DHT22;2524;54.364;10.072;2023-07-29T02:27:26;18.40;99.90
5011;DHT22;2524;54.364;10.072;2023-07-29T02:29:52;18.30;99.90
5011;DHT22;2524;54.364;10.072;2023-07-29T02:32:18;18.50;99.90
5011;DHT22;2524;54.364;10.072;2023-07-29T02:34:44;18.30;99.90
5011;DHT22;2524;54.364;10.072;2023-07-29T02:37:10;18.30;99.90
5011;DHT22;2524;54.364;10.072;2023-07-29T02:39:35;18.40;99.90
5011;DHT22;2524;54.364;10.072;2023-07-29T02:42:01;18.30;99.90
5011;DHT22;2524;54.364;10.072;2023-07-29T02:44:27;18.30;99.90
5011;DHT22;2524;54.364;10.072;2023-07-29T02:46:52;18.30;99.90
5011;DHT22;2524;54.364;10.072;2023-07-29T02:49:19;18.30;99.90
5011;DHT22;2524;54.364;10.072;2023-07-29T02:51:45;18.30;99.90
5011;DHT22;2524;54.364;10.072;2023-07-29T02:54:11;18.20;99.90
5011;DHT22;2524;54.364;10.072;2023-07-29T02:56:36;18.30;99.90
5011;DHT22;2524;54.364;10.072;2023-07-29T02:59:02;18.30;99.90
5011;DHT22;2524;54.364;10.072;2023-07-29T03:01:27;18.20;99.90
5011;DHT22;2524;54.364;10.072;2023-07-29T03:03:53;18.20;99.90
5011;DHT22;2524;54.364;10.072;2023-07-29T03:06:18;18.20;99.90
5011;DHT22;2524;54.364;10.072;2023-07-29T03:08:44;18.30;99.90
5011;DHT22;2524;54.364;10.072;2023-07-29T03:11:13;18.20;99.90
5011;DHT22;2524;54.364;10.072;2023-07-29T03:13:39;18.20;99.90
5011;DHT22;2524;54.364;10.072;2023-07-29T03:16:08;18.20;99.90
5011;DHT22;2524;54.364;10.072;2023-07-29T03:18:34;18.20;99.90
5011;DHT22;2524;54.364;10.072;2023-07-29T03:21:00;18.40;99.90
5011;DHT22;2524;54.364;10.072;2023-07-29T03:23:27;18.20;99.90
5011;DHT22;2524;54.364;10.072;2023-07-29T03:25:58;18.20;99.90
5011;DHT22;2524;54.364;10.072;2023-07-29T03:28:31;18.20;99.90
5011;DHT22;2524;54.364;10.072;2023-07-29T03:30:57;18.20;99.90
5011;DHT22;2524;54.364;10.072;2023-07-29T03:33:23;18.20;99.90
5011;DHT22;2524;54.364;10.072;2023-07-29T03:35:49;18.20;99.90
5011;DHT22;2524;54.364;10.072;2023-07-29T03:38:15;18.20;99.90
5011;DHT22;2524;54.364;10.072;2023-07-29T03:40:41;18.10;99.90
5011;DHT22;2524;54.364;10.072;2023-07-29T03:43:07;18.10;99.90
5011;DHT22;2524;54.364;10.072;2023-07-29T03:45:34;18.10;99.90
5011;DHT22;2524;54.364;10.072;2023-07-29T03:47:59;18.20;99.90
5011;DHT22;2524;54.364;10.072;2023-07-29T03:50:25;18.10;99.90
5011;DHT22;2524;54.364;10.072;2023-07-29T03:52:51;18.10;99.90
5011;DHT22;2524;54.364;10.072;2023-07-29T03:55:17;18.10;99.90
5011;DHT22;2524;54.364;10.072;2023-07-29T03:57:42;18.10;99.90
5011;DHT22;2524;54.364;10.072;2023-07-29T04:00:08;18.10;99.90
5011;DHT22;2524;54.364;10.072;2023-07-29T04:02:36;18.00;99.90
5011;DHT22;2524;54.364;10.072;2023-07-29T04:05:03;18.10;99.90
5011;DHT22;2524;54.364;10.072;2023-07-29T04:07:30;18.10;99.90
5011;DHT22;2524;54.364;10.072;2023-07-29T04:09:55;18.10;99.90
5011;DHT22;2524;54.364;10.072;2023-07-29T04:12:22;18.10;99.90
5011;DHT22;2524;54.364;10.072;2023-07-29T04:14:47;18.20;99.90
5011;DHT22;2524;54.364;10.072;2023-07-29T04:17:13;18.10;99.90
5011;DHT22;2524;54.364;10.072;2023-07-29T04:19:38;18.20;99.90
5011;DHT22;2524;54.364;10.072;2023-07-29T04:22:04;18.20;99.90
5011;DHT22;2524;54.364;10.072;2023-07-29T04:24:30;18.20;99.90
5011;DHT22;2524;54.364;10.072;2023-07-29T04:26:55;18.20;99.90
5011;DHT22;2524;54.364;10.072;2023-07-29T04:29:21;18.20;99.90
5011;DHT22;2524;54.364;10.072;2023-07-29T04:31:48;18.20;99.90
5011;DHT22;2524;54.364;10.072;2023-07-29T04:34:14;18.20;99.90
5011;DHT22;2524;54.364;10.072;2023-07-29T04:36:39;18.20;99.90
5011;DHT22;2524;54.364;10.072;2023-07-29T04:39:05;18.20;99.90
5011;DHT22;2524;54.364;10.072;2023-07-29T04:41:30;18.20;99.90
5011;DHT22;2524;54.364;10.072;2023-07-29T04:43:56;18.20;99.90
5011;DHT22;2524;54.364;10.072;2023-07-29T04:46:22;18.20;99.90
5011;DHT22;2524;54.364;10.072;2023-07-29T04:48:47;18.20;99.90
5011;DHT22;2524;54.364;10.072;2023-07-29T04:51:13;18.20;99.90
5011;DHT22;2524;54.364;10.072;2023-07-29T04:53:38;18.20;99.90
5011;DHT22;2524;54.364;10.072;2023-07-29T04:56:04;18.10;99.90
5011;DHT22;2524;54.364;10.072;2023-07-29T04:58:30;18.20;99.90
5011;DHT22;2524;54.364;10.072;2023-07-29T05:00:56;18.20;99.90
5011;DHT22;2524;54.364;10.072;2023-07-29T05:03:22;18.10;99.90
5011;DHT22;2524;54.364;10.072;2023-07-29T05:05:47;18.10;99.90
5011;DHT22;2524;54.364;10.072;2023-07-29T05:08:13;18.10;99.90
5011;DHT22;2524;54.364;10.072;2023-07-29T05:10:38;18.10;99.90
5011;DHT22;2524;54.364;10.072;2023-07-29T05:13:04;18.20;99.90
5011;DHT22;2524;54.364;10.072;2023-07-29T05:15:29;18.20;99.90
5011;DHT22;2524;54.364;10.072;2023-07-29T05:17:56;18.20;99.90
5011;DHT22;2524;54.364;10.072;2023-07-29T05:20:21;18.20;99.90
5011;DHT22;2524;54.364;10.072;2023-07-29T05:22:47;18.30;99.90
5011;DHT22;2524;54.364;10.072;2023-07-29T05:25:12;18.20;99.90
5011;DHT22;2524;54.364;10.072;2023-07-29T05:27:38;18.20;99.90
5011;DHT22;2524;54.364;10.072;2023-07-29T05:30:04;18.20;99.90
5011;DHT22;2524;54.364;10.072;2023-07-29T05:32:30;18.30;99.90
5011;DHT22;2524;54.364;10.072;2023-07-29T05:34:55;18.30;99.90
5011;DHT22;2524;54.364;10.072;2023-07-29T05:37:21;18.40;99.90
5011;DHT22;2524;54.364;10.072;2023-07-29T05:39:46;18.40;99.90
5011;DHT22;2524;54.364;10.072;2023-07-29T05:42:12;18.40;99.90
5011;DHT22;2524;54.364;10.072;2023-07-29T05:44:37;18.40;99.90
5011;DHT22;2524;54.364;10.072;2023-07-29T05:47:03;18.40;99.90
5011;DHT22;2524;54.364;10.072;2023-07-29T05:49:29;18.40;99.90
5011;DHT22;2524;54.364;10.072;2023-07-29T05:51:54;18.40;99.90
5011;DHT22;2524;54.364;10.072;2023-07-29T05:54:20;18.30;99.90
5011;DHT22;2524;54.364;10.072;2023-07-29T05:56:45;18.30;99.90
5011;DHT22;2524;54.364;10.072;2023-07-29T05:59:11;18.30;99.90
5011;DHT22;2524;54.364;10.072;2023-07-29T06:01:36;18.30;99.90
5011;DHT22;2524;54.364;10.072;2023-07-29T06:04:02;18.30;99.90
5011;DHT22;2524;54.364;10.072;2023-07-29T06:06:28;18.20;99.90
5011;DHT22;2524;54.364;10.072;2023-07-29T06:08:53;18.20;99.90
5011;DHT22;2524;54.364;10.072;2023-07-29T06:11:19;18.30;99.90
5011;DHT22;2524;54.364;10.072;2023-07-29T06:13:45;18.40;99.90
5011;DHT22;2524;54.364;10.072;2023-07-29T06:16:11;18.20;99.90
5011;DHT22;2524;54.364;10.072;2023-07-29T06:18:36;18.20;99.90
5011;DHT22;2524;54.364;10.072;2023-07-29T06:21:02;18.20;99.90
5011;DHT22;2524;54.364;10.072;2023-07-29T06:23:27;18.30;99.90
5011;DHT22;2524;54.364;10.072;2023-07-29T06:25:53;18.30;99.90
5011;DHT22;2524;54.364;10.072;2023-07-29T06:28:19;18.30;99.90
5011;DHT22;2524;54.364;10.072;2023-07-29T06:30:44;18.30;99.90
5011;DHT22;2524;54.364;10.072;2023-07-29T06:33:10;18.40;99.90
5011;DHT22;2524;54.364;10.072;2023-07-29T06:35:35;18.60;99.90
5011;DHT22;2524;54.364;10.072;2023-07-29T06:38:01;18.70;99.90
5011;DHT22;2524;54.364;10.072;2023-07-29T06:40:26;18.60;99.90
5011;DHT22;2524;54.364;10.072;2023-07-29T06:42:52;18.60;99.90
5011;DHT22;2524;54.364;10.072;2023-07-29T06:45:17;18.70;99.90
5011;DHT22;2524;54.364;10.072;2023-07-29T06:47:43;18.70;99.90
5011;DHT22;2524;54.364;10.072;2023-07-29T06:50:09;18.80;99.90
5011;DHT22;2524;54.364;10.072;2023-07-29T06:52:34;18.80;99.90
5011;DHT22;2524;54.364;10.072;2023-07-29T06:55:02;18.90;99.90
5011;DHT22;2524;54.364;10.072;2023-07-29T06:57:27;18.90;99.90
5011;DHT22;2524;54.364;10.072;2023-07-29T06:59:53;18.90;99.90
5011;DHT22;2524;54.364;10.072;2023-07-29T07:02:18;19.10;99.90
5011;DHT22;2524;54.364;10.072;2023-07-29T07:04:44;19.00;99.90
5011;DHT22;2524;54.364;10.072;2023-07-29T07:07:10;19.00;99.90
5011;DHT22;2524;54.364;10.072;2023-07-29T07:09:36;19.00;99.90
5011;DHT22;2524;54.364;10.072;2023-07-29T07:12:01;19.00;99.90
5011;DHT22;2524;54.364;10.072;2023-07-29T07:14:27;19.10;99.90
5011;DHT22;2524;54.364;10.072;2023-07-29T07:16:52;19.10;99.90
5011;DHT22;2524;54.364;10.072;2023-07-29T07:19:18;19.30;99.90
5011;DHT22;2524;54.364;10.072;2023-07-29T07:21:43;19.20;99.90
5011;DHT22;2524;54.364;10.072;2023-07-29T07:24:09;19.30;99.90
5011;DHT22;2524;54.364;10.072;2023-07-29T07:26:34;19.30;99.90
5011;DHT22;2524;54.364;10.072;2023-07-29T07:29:00;19.40;99.90
5011;DHT22;2524;54.364;10.072;2023-07-29T07:31:26;19.60;99.90
5011;DHT22;2524;54.364;10.072;2023-07-29T07:33:51;19.50;99.90
5011;DHT22;2524;54.364;10.072;2023-07-29T07:36:17;19.70;99.90
5011;DHT22;2524;54.364;10.072;2023-07-29T07:38:42;19.60;99.90
5011;DHT22;2524;54.364;10.072;2023-07-29T07:41:08;19.60;99.90
5011;DHT22;2524;54.364;10.072;2023-07-29T07:43:33;19.60;99.90
5011;DHT22;2524;54.364;10.072;2023-07-29T08:12:54;19.80;99.90
5011;DHT22;2524;54.364;10.072;2023-07-29T08:17:45;19.90;99.90
5011;DHT22;2524;54.364;10.072;2023-07-29T08:20:11;19.90;99.90
5011;DHT22;2524;54.364;10.072;2023-07-29T08:22:36;20.00;99.90
5011;DHT22;2524;54.364;10.072;2023-07-29T08:25:02;19.90;99.90
5011;DHT22;2524;54.364;10.072;2023-07-29T08:32:18;20.10;99.90
5011;DHT22;2524;54.364;10.072;2023-07-29T08:34:44;20.10;99.90
5011;DHT22;2524;54.364;10.072;2023-07-29T08:37:10;20.20;99.90
5011;DHT22;2524;54.364;10.072;2023-07-29T08:39:35;20.20;99.90
5011;DHT22;2524;54.364;10.072;2023-07-29T08:44:30;20.30;99.90
5011;DHT22;2524;54.364;10.072;2023-07-29T08:46:56;20.30;99.90
5011;DHT22;2524;54.364;10.072;2023-07-29T08:49:23;20.40;99.90
5011;DHT22;2524;54.364;10.072;2023-07-29T08:51:50;20.50;99.90
5011;DHT22;2524;54.364;10.072;2023-07-29T08:54:18;20.50;99.90
5011;DHT22;2524;54.364;10.072;2023-07-29T08:56:45;20.50;99.90
5011;DHT22;2524;54.364;10.072;2023-07-29T08:59:11;20.50;99.90
5011;DHT22;2524;54.364;10.072;2023-07-29T09:01:41;20.70;99.90
5011;DHT22;2524;54.364;10.072;2023-07-29T09:04:07;20.70;99.90
5011;DHT22;2524;54.364;10.072;2023-07-29T09:06:33;20.90;99.90
5011;DHT22;2524;54.364;10.072;2023-07-29T09:11:26;20.80;99.90
5011;DHT22;2524;54.364;10.072;2023-07-29T09:13:53;20.80;99.90
5011;DHT22;2524;54.364;10.072;2023-07-29T09:16:20;20.90;99.90
5011;DHT22;2524;54.364;10.072;2023-07-29T09:18:48;20.80;99.90
5011;DHT22;2524;54.364;10.072;2023-07-29T09:21:17;20.80;99.90
5011;DHT22;2524;54.364;10.072;2023-07-29T09:23:44;20.70;99.90
5011;DHT22;2524;54.364;10.072;2023-07-29T09:26:10;20.80;99.90
5011;DHT22;2524;54.364;10.072;2023-07-29T09:28:38;20.80;99.90
5011;DHT22;2524;54.364;10.072;2023-07-29T09:31:04;20.70;99.90
5011;DHT22;2524;54.364;10.072;2023-07-29T09:33:33;20.70;99.90
5011;DHT22;2524;54.364;10.072;2023-07-29T09:36:07;20.70;99.90
5011;DHT22;2524;54.364;10.072;2023-07-29T09:38:34;20.70;99.90
5011;DHT22;2524;54.364;10.072;2023-07-29T09:41:01;20.80;99.90
5011;DHT22;2524;54.364;10.072;2023-07-29T09:43:31;21.00;99.90
5011;DHT22;2524;54.364;10.072;2023-07-29T09:46:03;21.10;99.90
5011;DHT22;2524;54.364;10.072;2023-07-29T09:48:36;21.30;99.90
5011;DHT22;2524;54.364;10.072;2023-07-29T09:53:27;21.50;99.90
5011;DHT22;2524;54.364;10.072;2023-07-29T09:55:53;21.40;99.90
5011;DHT22;2524;54.364;10.072;2023-07-29T09:58:28;21.40;99.90
5011;DHT22;2524;54.364;10.072;2023-07-29T10:00:54;21.30;99.90
5011;DHT22;2524;54.364;10.072;2023-07-29T10:03:21;21.20;99.90
5011;DHT22;2524;54.364;10.072;2023-07-29T10:05:47;21.20;99.90
5011;DHT22;2524;54.364;10.072;2023-07-29T10:08:13;21.30;99.90
5011;DHT22;2524;54.364;10.072;2023-07-29T10:10:41;21.30;99.90
5011;DHT22;2524;54.364;10.072;2023-07-29T10:13:07;21.50;99.90
5011;DHT22;2524;54.364;10.072;2023-07-29T10:15:34;21.50;99.90
5011;DHT22;2524;54.364;10.072;2023-07-29T10:18:01;21.60;99.90
5011;DHT22;2524;54.364;10.072;2023-07-29T10:20:30;21.70;99.90
5011;DHT22;2524;54.364;10.072;2023-07-29T10:22:59;21.70;99.90
5011;DHT22;2524;54.364;10.072;2023-07-29T10:25:33;21.80;99.90
5011;DHT22;2524;54.364;10.072;2023-07-29T10:28:07;21.90;99.90
5011;DHT22;2524;54.364;10.072;2023-07-29T10:30:33;22.00;99.90
5011;DHT22;2524;54.364;10.072;2023-07-29T10:33:02;22.20;99.90
5011;DHT22;2524;54.364;10.072;2023-07-29T10:35:28;22.30;99.90
5011;DHT22;2524;54.364;10.072;2023-07-29T10:37:55;22.50;99.90
5011;DHT22;2524;54.364;10.072;2023-07-29T10:40:21;22.70;99.90
5011;DHT22;2524;54.364;10.072;2023-07-29T10:43:01;22.80;99.90
5011;DHT22;2524;54.364;10.072;2023-07-29T10:45:39;22.80;99.90
5011;DHT22;2524;54.364;10.072;2023-07-29T10:48:09;22.80;99.90
5011;DHT22;2524;54.364;10.072;2023-07-29T10:50:35;22.70;99.90
5011;DHT22;2524;54.364;10.072;2023-07-29T10:53:01;22.70;99.90
5011;DHT22;2524;54.364;10.072;2023-07-29T10:55:35;22.70;99.90
5011;DHT22;2524;54.364;10.072;2023-07-29T10:58:14;22.70;99.90
5011;DHT22;2524;54.364;10.072;2023-07-29T11:08:34;22.90;99.90
5011;DHT22;2524;54.364;10.072;2023-07-29T11:13:29;23.00;99.90
5011;DHT22;2524;54.364;10.072;2023-07-29T11:15:55;23.00;99.90
5011;DHT22;2524;54.364;10.072;2023-07-29T11:18:26;22.90;99.90
5011;DHT22;2524;54.364;10.072;2023-07-29T11:20:54;22.80;99.90
5011;DHT22;2524;54.364;10.072;2023-07-29T11:23:20;22.70;99.90
5011;DHT22;2524;54.364;10.072;2023-07-29T11:25:46;22.60;99.90
5011;DHT22;2524;54.364;10.072;2023-07-29T11:28:11;22.50;99.90
5011;DHT22;2524;54.364;10.072;2023-07-29T11:30:40;22.40;99.90
5011;DHT22;2524;54.364;10.072;2023-07-29T11:33:05;22.40;99.90
5011;DHT22;2524;54.364;10.072;2023-07-29T11:35:32;22.40;99.90
5011;DHT22;2524;54.364;10.072;2023-07-29T11:37:57;22.40;99.90
5011;DHT22;2524;54.364;10.072;2023-07-29T11:40:23;22.50;99.90
5011;DHT22;2524;54.364;10.072;2023-07-29T11:42:51;22.60;99.90
5011;DHT22;2524;54.364;10.072;2023-07-29T11:45:17;22.70;99.90
5011;DHT22;2524;54.364;10.072;2023-07-29T11:47:43;22.90;99.90
5011;DHT22;2524;54.364;10.072;2023-07-29T11:50:10;23.00;99.90
5011;DHT22;2524;54.364;10.072;2023-07-29T11:52:37;23.10;99.90
5011;DHT22;2524;54.364;10.072;2023-07-29T11:55:05;23.10;99.90
5011;DHT22;2524;54.364;10.072;2023-07-29T11:57:33;23.10;99.90
5011;DHT22;2524;54.364;10.072;2023-07-29T11:59:58;23.20;99.90
5011;DHT22;2524;54.364;10.072;2023-07-29T12:02:24;23.20;99.90
5011;DHT22;2524;54.364;10.072;2023-07-29T12:04:51;23.30;99.90
5011;DHT22;2524;54.364;10.072;2023-07-29T12:07:18;23.20;99.90
5011;DHT22;2524;54.364;10.072;2023-07-29T12:09:45;23.20;99.90
5011;DHT22;2524;54.364;10.072;2023-07-29T12:12:11;23.20;99.90
5011;DHT22;2524;54.364;10.072;2023-07-29T12:14:37;23.30;99.90
5011;DHT22;2524;54.364;10.072;2023-07-29T12:17:04;23.40;99.90
5011;DHT22;2524;54.364;10.072;2023-07-29T12:19:34;23.50;99.90
5011;DHT22;2524;54.364;10.072;2023-07-29T12:22:01;23.60;99.90
5011;DHT22;2524;54.364;10.072;2023-07-29T12:24:27;23.70;99.90
5011;DHT22;2524;54.364;10.072;2023-07-29T12:26:52;23.70;99.90
5011;DHT22;2524;54.364;10.072;2023-07-29T12:29:19;23.70;99.90
5011;DHT22;2524;54.364;10.072;2023-07-29T12:31:48;23.60;99.90
5011;DHT22;2524;54.364;10.072;2023-07-29T12:34:21;23.70;99.90
5011;DHT22;2524;54.364;10.072;2023-07-29T12:36:48;23.80;99.90
5011;DHT22;2524;54.364;10.072;2023-07-29T12:39:25;23.70;99.90
5011;DHT22;2524;54.364;10.072;2023-07-29T12:41:53;23.70;99.90
5011;DHT22;2524;54.364;10.072;2023-07-29T12:44:19;23.60;99.90
5011;DHT22;2524;54.364;10.072;2023-07-29T12:46:45;23.60;99.90
5011;DHT22;2524;54.364;10.072;2023-07-29T12:49:11;23.60;99.90
5011;DHT22;2524;54.364;10.072;2023-07-29T12:51:37;23.60;99.90
5011;DHT22;2524;54.364;10.072;2023-07-29T12:54:03;23.60;99.90
5011;DHT22;2524;54.364;10.072;2023-07-29T12:56:32;23.60;99.90
5011;DHT22;2524;54.364;10.072;2023-07-29T12:58:59;23.60;99.90
5011;DHT22;2524;54.364;10.072;2023-07-29T13:01:25;23.50;99.90
5011;DHT22;2524;54.364;10.072;2023-07-29T13:03:51;23.40;99.90
5011;DHT22;2524;54.364;10.072;2023-07-29T13:06:16;23.40;99.90
5011;DHT22;2524;54.364;10.072;2023-07-29T13:08:43;23.40;99.90
5011;DHT22;2524;54.364;10.072;2023-07-29T13:11:09;23.30;99.90
5011;DHT22;2524;54.364;10.072;2023-07-29T13:13:34;23.30;99.90
5011;DHT22;2524;54.364;10.072;2023-07-29T13:16:00;23.40;99.90
5011;DHT22;2524;54.364;10.072;2023-07-29T13:18:26;23.40;99.90
5011;DHT22;2524;54.364;10.072;2023-07-29T13:20:52;23.50;99.90
5011;DHT22;2524;54.364;10.072;2023-07-29T13:23:18;23.70;99.90
5011;DHT22;2524;54.364;10.072;2023-07-29T13:25:43;23.60;99.90
5011;DHT22;2524;54.364;10.072;2023-07-29T13:28:10;23.60;99.90
5011;DHT22;2524;54.364;10.072;2023-07-29T13:30:35;23.60;99.90
5011;DHT22;2524;54.364;10.072;2023-07-29T13:33:01;23.60;99.90
5011;DHT22;2524;54.364;10.072;2023-07-29T13:35:27;23.60;99.90
5011;DHT22;2524;54.364;10.072;2023-07-29T13:37:52;23.60;99.90
5011;DHT22;2524;54.364;10.072;2023-07-29T13:40:18;23.70;99.90
5011;DHT22;2524;54.364;10.072;2023-07-29T13:42:43;23.60;99.90
5011;DHT22;2524;54.364;10.072;2023-07-29T13:45:09;23.60;99.90
5011;DHT22;2524;54.364;10.072;2023-07-29T13:47:35;23.60;99.90
5011;DHT22;2524;54.364;10.072;2023-07-29T13:50:01;23.70;99.90
5011;DHT22;2524;54.364;10.072;2023-07-29T13:52:27;23.70;99.90
5011;DHT22;2524;54.364;10.072;2023-07-29T13:54:53;23.70;99.90
5011;DHT22;2524;54.364;10.072;2023-07-29T13:57:18;23.70;99.90
5011;DHT22;2524;54.364;10.072;2023-07-29T13:59:44;23.70;99.90
5011;DHT22;2524;54.364;10.072;2023-07-29T14:02:10;23.80;99.90
5011;DHT22;2524;54.364;10.072;2023-07-29T14:04:35;23.80;99.90
5011;DHT22;2524;54.364;10.072;2023-07-29T14:07:01;23.80;99.90
5011;DHT22;2524;54.364;10.072;2023-07-29T14:09:27;23.80;99.90
5011;DHT22;2524;54.364;10.072;2023-07-29T14:11:54;23.90;99.90
5011;DHT22;2524;54.364;10.072;2023-07-29T14:14:19;23.80;99.90
5011;DHT22;2524;54.364;10.072;2023-07-29T14:16:45;23.80;99.90
5011;DHT22;2524;54.364;10.072;2023-07-29T14:19:11;23.80;99.90
5011;DHT22;2524;54.364;10.072;2023-07-29T14:21:36;23.80;99.90
5011;DHT22;2524;54.364;10.072;2023-07-29T14:24:02;23.80;99.90
5011;DHT22;2524;54.364;10.072;2023-07-29T14:26:27;23.70;99.90
5011;DHT22;2524;54.364;10.072;2023-07-29T14:28:53;23.80;99.90
5011;DHT22;2524;54.364;10.072;2023-07-29T14:31:19;23.70;99.90
5011;DHT22;2524;54.364;10.072;2023-07-29T14:33:45;23.70;99.90
5011;DHT22;2524;54.364;10.072;2023-07-29T14:36:10;23.70;99.90
5011;DHT22;2524;54.364;10.072;2023-07-29T14:38:36;23.80;99.90
5011;DHT22;2524;54.364;10.072;2023-07-29T14:41:02;23.80;99.90
5011;DHT22;2524;54.364;10.072;2023-07-29T14:43:29;23.80;99.90
5011;DHT22;2524;54.364;10.072;2023-07-29T14:45:55;23.80;99.90
5011;DHT22;2524;54.364;10.072;2023-07-29T14:48:21;23.80;99.90
5011;DHT22;2524;54.364;10.072;2023-07-29T14:50:46;23.90;99.90
5011;DHT22;2524;54.364;10.072;2023-07-29T14:53:12;23.90;99.90
5011;DHT22;2524;54.364;10.072;2023-07-29T14:55:38;23.90;99.90
5011;DHT22;2524;54.364;10.072;2023-07-29T14:58:03;23.90;99.90
5011;DHT22;2524;54.364;10.072;2023-07-29T15:00:29;23.90;99.90
5011;DHT22;2524;54.364;10.072;2023-07-29T15:02:54;23.90;99.90
5011;DHT22;2524;54.364;10.072;2023-07-29T15:05:20;23.90;99.90
5011;DHT22;2524;54.364;10.072;2023-07-29T15:07:46;23.90;99.90
5011;DHT22;2524;54.364;10.072;2023-07-29T15:10:14;23.90;99.90
5011;DHT22;2524;54.364;10.072;2023-07-29T15:12:41;23.80;99.90
5011;DHT22;2524;54.364;10.072;2023-07-29T15:15:07;23.80;99.90
5011;DHT22;2524;54.364;10.072;2023-07-29T15:17:33;23.70;99.90
5011;DHT22;2524;54.364;10.072;2023-07-29T15:19:58;23.70;99.90
5011;DHT22;2524;54.364;10.072;2023-07-29T15:22:24;23.70;99.90
5011;DHT22;2524;54.364;10.072;2023-07-29T15:24:49;23.70;99.90
5011;DHT22;2524;54.364;10.072;2023-07-29T15:27:15;23.70;99.90
5011;DHT22;2524;54.364;10.072;2023-07-29T15:29:41;23.80;99.90
5011;DHT22;2524;54.364;10.072;2023-07-29T15:32:06;23.70;99.90
5011;DHT22;2524;54.364;10.072;2023-07-29T15:34:33;23.60;99.90
5011;DHT22;2524;54.364;10.072;2023-07-29T15:36:58;23.60;99.90
5011;DHT22;2524;54.364;10.072;2023-07-29T15:39:24;23.50;99.90
5011;DHT22;2524;54.364;10.072;2023-07-29T15:41:50;23.50;99.90
5011;DHT22;2524;54.364;10.072;2023-07-29T15:44:15;23.50;99.90
5011;DHT22;2524;54.364;10.072;2023-07-29T15:46:42;23.50;99.90
5011;DHT22;2524;54.364;10.072;2023-07-29T15:49:08;23.50;99.90
5011;DHT22;2524;54.364;10.072;2023-07-29T15:51:35;23.40;99.90
5011;DHT22;2524;54.364;10.072;2023-07-29T15:54:00;23.40;99.90
5011;DHT22;2524;54.364;10.072;2023-07-29T15:56:27;23.30;99.90
5011;DHT22;2524;54.364;10.072;2023-07-29T15:58:53;23.30;99.90
5011;DHT22;2524;54.364;10.072;2023-07-29T16:01:19;23.30;99.90
5011;DHT22;2524;54.364;10.072;2023-07-29T16:03:45;23.30;99.90
5011;DHT22;2524;54.364;10.072;2023-07-29T16:06:10;23.30;99.90
5011;DHT22;2524;54.364;10.072;2023-07-29T16:08:36;23.30;99.90
5011;DHT22;2524;54.364;10.072;2023-07-29T16:11:01;23.30;99.90
5011;DHT22;2524;54.364;10.072;2023-07-29T16:13:27;23.30;99.90
5011;DHT22;2524;54.364;10.072;2023-07-29T16:15:52;23.20;99.90
5011;DHT22;2524;54.364;10.072;2023-07-29T16:18:18;23.20;99.90
5011;DHT22;2524;54.364;10.072;2023-07-29T16:20:44;23.20;99.80
5011;DHT22;2524;54.364;10.072;2023-07-29T16:23:11;23.10;99.80
5011;DHT22;2524;54.364;10.072;2023-07-29T16:25:37;22.90;99.70
5011;DHT22;2524;54.364;10.072;2023-07-29T16:28:03;22.90;99.70
5011;DHT22;2524;54.364;10.072;2023-07-29T16:30:28;22.80;99.80
5011;DHT22;2524;54.364;10.072;2023-07-29T16:32:54;22.80;99.80
5011;DHT22;2524;54.364;10.072;2023-07-29T16:35:19;22.70;99.80